Time;durP1;ratioP1;P1;durP2;ratioP2;P2;SDS_P1;SDS_P2;PMS_P1;PMS_P2;Temp;Humidity;BMP_temperature;BMP_pressure;BME280_temperature;BME280_humidity;BME280_pressure;Samples;Min_cycle;Max_cycle;Signal;HPM_P1;HPM_P2
2023/01/28 00:00:11;;;;;;;28.20;14.20;;;;;;;-0.99;90.35;96622.72;5034643;28;20049;-86
2023/01/28 00:02:37;;;;;;;27.88;13.10;;;;;;;-0.99;90.58;96621.88;5037317;28;20048;-81
2023/01/28 00:05:06;;;;;;;29.88;13.93;;;;;;;-1.03;90.70;96626.09;5044909;28;20033;-82
2023/01/28 00:07:33;;;;;;;28.45;13.98;;;;;;;-0.99;90.87;96633.41;5034301;28;20049;-87
2023/01/28 00:09:59;;;;;;;31.17;14.43;;;;;;;-1.00;91.02;96629.09;5036198;28;20049;-83
2023/01/28 00:12:26;;;;;;;32.05;14.20;;;;;;;-1.04;91.27;96627.97;5033795;28;20048;-83
2023/01/28 00:14:52;;;;;;;27.75;13.73;;;;;;;-1.01;91.36;96632.81;5034483;28;20052;-82
2023/01/28 00:17:19;;;;;;;33.92;16.30;;;;;;;-0.97;91.41;96625.97;5041538;28;20080;-83
2023/01/28 00:19:45;;;;;;;31.25;14.30;;;;;;;-0.96;91.32;96627.56;5034544;28;20038;-84
2023/01/28 00:22:14;;;;;;;29.40;14.88;;;;;;;-0.96;91.57;96622.22;5044283;28;20049;-84
2023/01/28 00:24:40;;;;;;;32.17;14.93;;;;;;;-0.94;91.53;96630.00;5040159;28;20107;-82
2023/01/28 00:27:07;;;;;;;28.75;14.35;;;;;;;-0.91;91.57;96624.19;5033940;28;20528;-84
2023/01/28 00:29:33;;;;;;;28.42;14.10;;;;;;;-0.94;91.67;96628.16;5040397;28;20045;-79
2023/01/28 00:31:59;;;;;;;36.20;15.38;;;;;;;-0.92;91.54;96623.38;5033098;28;20053;-82
2023/01/28 00:34:26;;;;;;;32.05;14.60;;;;;;;-0.92;91.42;96623.38;5033799;28;20045;-84
2023/01/28 00:36:56;;;;;;;34.55;15.00;;;;;;;-0.95;91.42;96617.69;5033367;28;20049;-83
2023/01/28 00:39:25;;;;;;;30.45;14.57;;;;;;;-0.95;91.55;96629.19;5032740;28;20064;-83
2023/01/28 00:41:52;;;;;;;32.15;15.10;;;;;;;-0.93;91.72;96621.75;5036607;28;20522;-85
2023/01/28 00:44:19;;;;;;;32.42;15.73;;;;;;;-0.91;91.75;96621.53;5032879;28;20533;-81
2023/01/28 00:46:46;;;;;;;29.73;14.30;;;;;;;-0.91;91.69;96618.84;5032787;28;20060;-80
2023/01/28 00:49:13;;;;;;;30.70;14.50;;;;;;;-0.94;91.83;96608.63;5035728;28;20042;-81
2023/01/28 00:51:39;;;;;;;29.60;14.30;;;;;;;-0.93;92.19;96611.06;5037722;28;20040;-81
2023/01/28 00:54:06;;;;;;;33.83;14.93;;;;;;;-0.96;92.41;96616.88;5034727;28;20037;-81
2023/01/28 00:56:35;;;;;;;30.08;14.80;;;;;;;-1.00;92.66;96623.75;5033728;28;20056;-81
2023/01/28 00:59:02;;;;;;;33.00;14.60;;;;;;;-0.99;92.79;96621.88;5033535;28;20409;-85
2023/01/28 01:01:28;;;;;;;30.98;14.48;;;;;;;-0.97;92.68;96625.97;5034225;28;20046;-82
2023/01/28 01:04:01;;;;;;;30.63;14.82;;;;;;;-1.08;92.69;96624.94;5034471;28;20502;-81
2023/01/28 01:06:29;;;;;;;33.83;14.73;;;;;;;-1.06;92.97;96620.16;5032868;28;20417;-79
2023/01/28 01:08:55;;;;;;;30.10;14.18;;;;;;;-1.00;92.73;96626.41;5042973;28;20295;-87
2023/01/28 01:11:21;;;;;;;34.40;15.27;;;;;;;-1.00;92.63;96621.06;5035950;28;20076;-82
2023/01/28 01:13:55;;;;;;;32.42;15.13;;;;;;;-1.04;92.55;96625.28;5033873;28;20053;-86
2023/01/28 01:16:23;;;;;;;35.17;15.10;;;;;;;-1.10;92.75;96632.41;5035787;28;20174;-81
2023/01/28 01:18:51;;;;;;;33.20;14.57;;;;;;;-1.12;92.82;96617.63;5032516;28;20045;-80
2023/01/28 01:21:20;;;;;;;33.38;14.63;;;;;;;-1.10;92.75;96623.56;5031640;28;20057;-79
2023/01/28 01:23:47;;;;;;;30.92;15.00;;;;;;;-1.15;92.82;96624.28;5032898;28;20049;-80
2023/01/28 01:26:14;;;;;;;32.10;14.73;;;;;;;-1.11;92.75;96629.94;5033986;28;20064;-80
2023/01/28 01:28:41;;;;;;;31.48;14.40;;;;;;;-1.16;92.81;96632.53;5031297;28;20053;-83
2023/01/28 01:31:12;;;;;;;31.42;15.45;;;;;;;-1.14;92.97;96633.13;5031597;28;20441;-79
2023/01/28 01:33:39;;;;;;;31.52;14.18;;;;;;;-1.13;92.83;96632.06;5032310;28;20050;-83
2023/01/28 01:36:06;;;;;;;33.08;15.23;;;;;;;-1.13;92.87;96632.06;5032332;28;20049;-84
2023/01/28 01:38:34;;;;;;;33.90;15.15;;;;;;;-1.17;92.93;96636.25;5034335;28;20045;-83
2023/01/28 01:41:01;;;;;;;32.35;15.23;;;;;;;-1.17;93.06;96630.91;5039029;28;20060;-79
2023/01/28 01:43:50;;;;;;;31.35;15.00;;;;;;;-1.19;93.17;96635.69;5035637;28;20591;-84
2023/01/28 01:46:23;;;;;;;33.72;15.15;;;;;;;-1.17;93.38;96641.59;5035543;28;20056;-83
2023/01/28 01:48:50;;;;;;;34.38;14.25;;;;;;;-1.17;93.34;96641.59;5036786;28;20041;-85
2023/01/28 01:51:21;;;;;;;30.00;14.38;;;;;;;-1.18;93.20;96646.13;5034759;28;20137;-85
2023/01/28 01:53:53;;;;;;;29.25;14.38;;;;;;;-1.17;93.33;96646.94;5036930;28;20057;-81
2023/01/28 01:56:23;;;;;;;28.95;14.10;;;;;;;-1.16;93.47;96648.56;5034010;28;20054;-80
2023/01/28 01:58:53;;;;;;;32.17;14.98;;;;;;;-1.16;93.49;96645.88;5036314;28;20049;-83
2023/01/28 02:01:25;;;;;;;35.90;15.32;;;;;;;-1.17;93.51;96645.06;5035782;28;20049;-84
2023/01/28 02:03:57;;;;;;;38.65;14.40;;;;;;;-1.19;93.50;96649.84;5037306;28;20053;-82
2023/01/28 02:06:24;;;;;;;21.67;10.20;;;;;;;-1.22;93.29;96644.97;5046322;28;20083;-81
2023/01/28 02:08:54;;;;;;;30.52;13.73;;;;;;;-1.18;93.26;96650.66;5033801;28;20053;-80
2023/01/28 02:11:22;;;;;;;30.08;14.35;;;;;;;-1.21;93.27;96646.59;5038040;28;20069;-83
2023/01/28 02:13:53;;;;;;;33.63;14.05;;;;;;;-1.16;92.94;96656.56;5040980;28;20045;-83
2023/01/28 02:16:22;;;;;;;28.27;13.90;;;;;;;-1.20;92.97;96661.59;5035867;28;20506;-80
2023/01/28 02:18:48;;;;;;;28.23;13.55;;;;;;;-1.18;92.91;96656.00;5035051;28;20049;-84
2023/01/28 02:21:43;;;;;;;31.85;14.55;;;;;;;-1.18;92.93;96651.47;5033894;28;20052;-88
2023/01/28 02:24:27;;;;;;;28.83;14.20;;;;;;;-1.22;93.04;96655.66;5036163;28;20068;-85
2023/01/28 02:27:06;;;;;;;31.85;14.38;;;;;;;-1.18;92.78;96653.34;5036477;28;20069;-82
2023/01/28 02:29:42;;;;;;;31.90;14.27;;;;;;;-1.17;92.87;96657.63;5037296;28;20401;-83
2023/01/28 02:32:15;;;;;;;31.17;13.88;;;;;;;-1.15;92.87;96660.84;5042291;28;20041;-83
2023/01/28 02:34:46;;;;;;;34.05;13.73;;;;;;;-1.19;92.94;96659.72;5038800;28;20053;-82
2023/01/28 02:37:17;;;;;;;30.27;14.00;;;;;;;-1.21;93.00;96675.16;5036361;28;20053;-83
2023/01/28 02:39:48;;;;;;;30.08;13.52;;;;;;;-1.18;93.17;96667.50;5038709;28;20433;-82
2023/01/28 02:42:19;;;;;;;27.70;13.23;;;;;;;-1.17;92.99;96666.44;5036302;28;20037;-84
2023/01/28 02:44:47;;;;;;;28.02;14.35;;;;;;;-1.18;93.03;96661.34;5036691;28;20049;-83
2023/01/28 02:50:02;;;;;;;31.52;14.93;;;;;;;-1.17;92.93;96669.13;5036288;28;20056;-82
2023/01/28 02:55:35;;;;;;;33.95;15.05;;;;;;;-1.26;92.81;96672.38;5036089;28;20048;-83
2023/01/28 02:58:09;;;;;;;29.02;13.98;;;;;;;-1.24;92.92;96667.63;5039195;28;20314;-83
2023/01/28 03:00:47;;;;;;;34.33;14.18;;;;;;;-1.20;92.83;96674.13;5035877;28;20060;-84
2023/01/28 03:03:20;;;;;;;33.60;14.45;;;;;;;-1.19;92.51;96673.09;5036142;28;20050;-83
2023/01/28 03:06:05;;;;;;;26.98;12.57;;;;;;;-1.18;92.70;96678.19;5041396;28;20053;-83
2023/01/28 03:38:59;;;;;;;29.42;14.18;;;;;;;-1.30;92.45;96682.75;5045419;28;20049;-85
2023/01/28 03:41:26;;;;;;;28.25;13.45;;;;;;;-1.37;92.75;96677.50;5049808;28;20060;-80
2023/01/28 03:43:53;;;;;;;30.92;13.90;;;;;;;-1.28;93.00;96682.50;5047625;28;20068;-85
2023/01/28 03:46:20;;;;;;;30.05;14.68;;;;;;;-1.28;92.87;96687.84;5047122;28;20064;-82
2023/01/28 03:48:48;;;;;;;33.60;14.70;;;;;;;-1.34;92.87;96694.94;5043001;28;20461;-81
2023/01/28 03:51:16;;;;;;;29.00;13.07;;;;;;;-1.32;92.64;96696.31;5047274;28;20532;-87
2023/01/28 03:53:43;;;;;;;29.40;13.75;;;;;;;-1.37;92.37;96687.38;5050100;28;20442;-84
2023/01/28 03:56:17;;;;;;;29.48;14.45;;;;;;;-1.41;92.49;96684.38;5057597;28;20056;-84
2023/01/28 03:58:51;;;;;;;32.35;13.45;;;;;;;-1.43;92.54;96686.47;5047266;28;20061;-81
2023/01/28 04:01:18;;;;;;;30.20;13.93;;;;;;;-1.45;92.61;96685.91;5036370;28;20129;-82
2023/01/28 04:03:45;;;;;;;30.40;15.00;;;;;;;-1.49;92.88;96692.75;5033143;28;20402;-80
2023/01/28 04:06:13;;;;;;;32.53;14.77;;;;;;;-1.45;92.78;96698.44;5038874;28;20458;-81
2023/01/28 04:08:44;;;;;;;31.52;14.52;;;;;;;-1.46;92.61;96702.13;5040736;28;20294;-81
2023/01/28 04:11:15;;;;;;;29.08;13.35;;;;;;;-1.46;92.77;96702.97;5043197;28;20045;-83
2023/01/28 04:13:42;;;;;;;30.02;14.57;;;;;;;-1.43;92.56;96699.81;5036678;28;20525;-82
2023/01/28 04:16:08;;;;;;;28.98;14.05;;;;;;;-1.40;92.39;96699.38;5048225;28;20045;-82
2023/01/28 04:18:35;;;;;;;30.83;13.82;;;;;;;-1.35;92.48;96704.81;5038688;28;20591;-83
2023/01/28 04:21:01;;;;;;;32.13;14.05;;;;;;;-1.30;92.15;96697.97;5047248;28;20053;-84
2023/01/28 04:23:29;;;;;;;28.55;13.57;;;;;;;-1.28;92.13;96706.56;5036206;28;20050;-82
2023/01/28 04:25:56;;;;;;;29.00;13.20;;;;;;;-1.31;92.14;96705.16;5045492;28;20048;-80
2023/01/28 04:28:23;;;;;;;29.60;13.35;;;;;;;-1.28;92.16;96709.22;5036222;28;20053;-81
2023/01/28 04:30:49;;;;;;;27.65;13.30;;;;;;;-1.33;92.08;96713.41;5043323;28;20044;-81
2023/01/28 04:33:16;;;;;;;27.52;12.82;;;;;;;-1.29;92.04;96707.59;5038099;28;20053;-84
2023/01/28 04:35:42;;;;;;;26.90;13.15;;;;;;;-1.28;91.82;96709.22;5038620;28;20049;-81
2023/01/28 04:38:09;;;;;;;28.35;12.77;;;;;;;-1.29;92.03;96712.94;5037558;28;20056;-81
2023/01/28 04:40:37;;;;;;;26.52;12.43;;;;;;;-1.29;92.00;96713.75;5039905;28;20518;-84
2023/01/28 04:43:03;;;;;;;27.52;13.45;;;;;;;-1.29;92.07;96716.44;5036178;28;20506;-83
2023/01/28 04:45:30;;;;;;;29.00;13.07;;;;;;;-1.30;91.79;96714.00;5044140;28;20041;-81
2023/01/28 04:47:57;;;;;;;25.20;11.95;;;;;;;-1.31;91.94;96718.50;5041120;28;20095;-84
2023/01/28 04:50:23;;;;;;;28.40;12.27;;;;;;;-1.38;91.97;96721.31;5036267;28;20049;-79
2023/01/28 04:52:50;;;;;;;26.38;13.27;;;;;;;-1.34;91.92;96722.47;5037860;28;20502;-81
2023/01/28 04:55:17;;;;;;;29.63;12.95;;;;;;;-1.32;92.09;96727.56;5044516;28;20429;-81
2023/01/28 04:57:46;;;;;;;25.98;12.27;;;;;;;-1.34;92.06;96727.81;5037075;28;20053;-80
2023/01/28 05:00:13;;;;;;;29.13;12.63;;;;;;;-1.32;92.22;96733.72;5036812;28;20115;-80
2023/01/28 05:02:40;;;;;;;24.67;12.65;;;;;;;-1.28;92.32;96725.25;5038114;28;20061;-82
2023/01/28 05:05:07;;;;;;;24.23;12.15;;;;;;;-1.26;92.43;96728.50;5041344;28;20067;-82
2023/01/28 05:07:34;;;;;;;27.08;13.02;;;;;;;-1.25;92.59;96732.78;5039600;28;20045;-84
2023/01/28 05:10:00;;;;;;;28.35;12.85;;;;;;;-1.26;92.73;96733.84;5041504;28;20052;-81
2023/01/28 05:12:27;;;;;;;28.63;13.20;;;;;;;-1.24;92.72;96729.09;5041351;28;20048;-81
2023/01/28 05:14:55;;;;;;;26.33;12.15;;;;;;;-1.24;92.89;96729.09;5051060;28;20056;-85
2023/01/28 05:17:21;;;;;;;25.75;11.88;;;;;;;-1.22;93.00;96733.13;5055774;28;20053;-82
2023/01/28 05:19:47;;;;;;;24.60;11.95;;;;;;;-1.19;92.78;96740.69;5044667;28;20049;-81
2023/01/28 05:22:14;;;;;;;29.08;13.13;;;;;;;-1.17;92.77;96743.13;5043669;28;20045;-79
2023/01/28 05:24:41;;;;;;;24.73;12.25;;;;;;;-1.18;92.88;96741.50;5042544;28;20049;-80
2023/01/28 05:27:07;;;;;;;29.08;12.75;;;;;;;-1.16;92.88;96750.09;5041613;28;20057;-86
2023/01/28 05:29:34;;;;;;;23.75;12.10;;;;;;;-1.18;92.91;96749.53;5041863;28;20061;-83
2023/01/28 05:32:02;;;;;;;27.35;12.95;;;;;;;-1.19;92.98;96747.91;5041995;28;20041;-81
2023/01/28 05:34:28;;;;;;;26.30;12.43;;;;;;;-1.16;92.95;96752.78;5041961;28;20045;-81
2023/01/28 05:36:54;;;;;;;34.35;13.88;;;;;;;-1.17;92.99;96754.63;5051100;28;20129;-81
2023/01/28 05:39:21;;;;;;;36.35;17.17;;;;;;;-1.16;92.83;96756.25;5040442;28;20042;-80
2023/01/28 05:41:48;;;;;;;33.47;15.98;;;;;;;-1.16;92.82;96752.78;5042278;28;20164;-80
2023/01/28 05:44:14;;;;;;;28.95;13.90;;;;;;;-1.15;92.96;96755.22;5039493;28;20045;-80
2023/01/28 05:46:44;;;;;;;29.25;14.10;;;;;;;-1.13;92.95;96763.00;5039464;28;20056;-80
2023/01/28 05:49:12;;;;;;;25.42;12.27;;;;;;;-1.14;92.85;96764.06;5038425;28;20045;-82
2023/01/28 05:51:40;;;;;;;29.00;13.32;;;;;;;-1.14;92.91;96772.06;5039458;28;20056;-80
2023/01/28 05:54:06;;;;;;;28.50;13.88;;;;;;;-1.14;92.87;96767.53;5041116;28;20037;-81
2023/01/28 05:56:33;;;;;;;29.33;13.45;;;;;;;-1.13;92.66;96768.34;5046504;28;20064;-80
2023/01/28 05:59:00;;;;;;;26.25;12.85;;;;;;;-1.13;92.60;96765.69;5039647;28;20037;-83
2023/01/28 06:01:26;;;;;;;25.48;12.43;;;;;;;-1.11;92.80;96766.25;5038849;28;20041;-81
2023/01/28 06:03:53;;;;;;;26.33;12.85;;;;;;;-1.11;92.60;96763.56;5040355;28;20049;-80
2023/01/28 06:06:21;;;;;;;26.00;12.57;;;;;;;-1.09;92.80;96767.66;5047617;28;20045;-80
2023/01/28 06:08:47;;;;;;;28.70;12.60;;;;;;;-1.08;92.69;96769.28;5039372;28;20042;-81
2023/01/28 06:11:14;;;;;;;23.13;11.07;;;;;;;-1.07;92.96;96778.09;5043828;28;20465;-83
2023/01/28 06:13:40;;;;;;;26.05;12.20;;;;;;;-1.04;93.11;96774.97;5044657;28;20045;-83
2023/01/28 06:16:07;;;;;;;27.42;12.75;;;;;;;-1.05;93.04;96774.13;5040652;28;20071;-81
2023/01/28 06:18:34;;;;;;;26.52;13.68;;;;;;;-1.06;92.96;96783.22;5047591;28;20049;-80
2023/01/28 06:21:01;;;;;;;23.95;11.32;;;;;;;-1.05;92.73;96781.34;5039029;28;20057;-82
2023/01/28 06:23:28;;;;;;;24.70;12.43;;;;;;;-1.04;92.67;96785.66;5038673;28;20049;-82
2023/01/28 06:25:56;;;;;;;27.35;13.05;;;;;;;-1.02;92.64;96783.56;5035686;28;20046;-80
2023/01/28 06:28:23;;;;;;;24.52;11.95;;;;;;;-1.02;92.48;96788.91;5038055;28;20516;-83
2023/01/28 06:30:50;;;;;;;26.75;13.05;;;;;;;-1.05;92.80;96789.38;5045090;28;20464;-83
2023/01/28 06:33:17;;;;;;;25.98;11.95;;;;;;;-1.06;92.93;96787.75;5036497;28;20077;-79
2023/01/28 06:35:43;;;;;;;23.08;10.90;;;;;;;-1.05;92.80;96789.38;5035869;28;20057;-81
2023/01/28 06:38:10;;;;;;;26.90;12.50;;;;;;;-1.02;92.59;96788.91;5035029;28;20052;-81
2023/01/28 06:40:38;;;;;;;26.30;12.32;;;;;;;-1.07;92.54;96792.28;5039501;28;20045;-81
2023/01/28 06:43:05;;;;;;;27.58;12.85;;;;;;;-1.09;92.25;96790.91;5038586;28;20045;-83
2023/01/28 06:45:32;;;;;;;23.63;11.93;;;;;;;-1.12;92.34;96804.72;5034603;28;20053;-83
2023/01/28 06:47:58;;;;;;;24.10;11.88;;;;;;;-1.15;92.40;96806.00;5033264;28;20053;-82
2023/01/28 06:50:25;;;;;;;25.17;10.95;;;;;;;-1.13;92.29;96803.91;5033154;28;20060;-80
2023/01/28 06:52:52;;;;;;;22.17;11.10;;;;;;;-1.13;92.40;96808.44;5031377;28;20425;-80
2023/01/28 06:55:18;;;;;;;22.83;11.25;;;;;;;-1.14;92.60;96809.50;5031388;28;20060;-78
2023/01/28 06:57:46;;;;;;;24.65;12.20;;;;;;;-1.13;92.82;96814.59;5030408;28;20053;-78
2023/01/28 07:00:14;;;;;;;22.65;11.00;;;;;;;-1.10;92.80;96818.66;5030226;28;20049;-80
2023/01/28 07:02:41;;;;;;;25.50;12.45;;;;;;;-1.08;92.65;96821.91;5032276;28;20056;-80
2023/01/28 07:05:08;;;;;;;23.13;11.57;;;;;;;-1.06;92.71;96825.16;5034950;28;20045;-84
2023/01/28 07:07:34;;;;;;;24.90;12.55;;;;;;;-1.05;92.70;96821.44;5044391;28;20056;-83
2023/01/28 07:10:01;;;;;;;25.08;12.57;;;;;;;-1.02;92.63;96820.97;5039392;28;20112;-83
2023/01/28 07:12:27;;;;;;;24.95;12.02;;;;;;;-0.98;92.79;96827.50;5039271;28;20774;-83
2023/01/28 07:14:55;;;;;;;26.40;12.00;;;;;;;-0.94;93.13;96828.66;5037865;28;20425;-85
2023/01/28 07:17:22;;;;;;;23.58;11.80;;;;;;;-0.95;93.17;96832.34;5035328;28;20070;-81
2023/01/28 07:19:48;;;;;;;27.88;13.23;;;;;;;-0.93;93.16;96832.16;5043160;28;20049;-80
2023/01/28 07:22:14;;;;;;;25.95;13.15;;;;;;;-0.92;93.39;96834.56;5035110;28;20041;-85
2023/01/28 07:24:41;;;;;;;28.98;12.27;;;;;;;-0.91;93.27;96836.19;5047414;28;20053;-82
2023/01/28 07:27:07;;;;;;;25.50;12.15;;;;;;;-0.89;93.28;96841.31;5034118;28;20053;-83
2023/01/28 07:29:34;;;;;;;23.42;11.63;;;;;;;-0.87;93.21;96840.03;5035929;28;20056;-82
2023/01/28 07:32:03;;;;;;;23.35;11.63;;;;;;;-0.88;93.07;96843.75;5035762;28;20060;-83
2023/01/28 07:34:30;;;;;;;23.45;11.40;;;;;;;-0.85;93.07;96842.47;5035681;28;20056;-85
2023/01/28 07:36:56;;;;;;;23.15;12.82;;;;;;;-0.83;92.97;96851.91;5047898;28;20049;-86
2023/01/28 07:39:23;;;;;;;26.15;12.45;;;;;;;-0.84;92.95;96844.91;5046576;28;20049;-82
2023/01/28 07:41:49;;;;;;;26.83;13.70;;;;;;;-0.86;93.05;96852.34;5038064;28;20056;-83
2023/01/28 07:44:15;;;;;;;28.75;13.85;;;;;;;-0.89;93.23;96852.84;5042784;28;20051;-82
2023/01/28 07:46:42;;;;;;;25.25;12.65;;;;;;;-0.88;93.01;96854.47;5044856;28;20060;-81
2023/01/28 07:49:10;;;;;;;24.38;12.38;;;;;;;-0.84;93.03;96858.28;5036643;28;20049;-83
2023/01/28 07:51:36;;;;;;;23.85;12.60;;;;;;;-0.77;92.75;96860.03;5036570;28;20055;-86
2023/01/28 07:54:02;;;;;;;30.42;14.57;;;;;;;-0.77;92.71;96860.03;5043192;28;20044;-88
2023/01/28 07:56:30;;;;;;;28.92;13.43;;;;;;;-0.74;92.77;96864.91;5034404;28;20049;-84
2023/01/28 07:58:57;;;;;;;27.98;13.18;;;;;;;-0.69;92.70;96870.38;5035274;28;20072;-84
2023/01/28 08:01:23;;;;;;;24.27;12.38;;;;;;;-0.66;92.53;96864.56;5042380;28;20053;-82
2023/01/28 08:03:50;;;;;;;23.38;11.75;;;;;;;-0.64;92.34;96868.63;5044147;28;20049;-81
2023/01/28 08:06:18;;;;;;;25.00;12.27;;;;;;;-0.58;92.07;96874.88;5035055;28;20422;-82
2023/01/28 08:08:44;;;;;;;31.17;14.45;;;;;;;-0.63;91.92;96872.91;5036772;28;20043;-82
2023/01/28 08:11:11;;;;;;;25.52;13.23;;;;;;;-0.62;92.08;96879.09;5039159;28;20051;-81
2023/01/28 08:13:37;;;;;;;23.38;11.80;;;;;;;-0.58;92.05;96869.53;5037361;28;20041;-80
2023/01/28 08:16:04;;;;;;;25.33;12.60;;;;;;;-0.53;91.95;96873.13;5029461;28;20053;-81
2023/01/28 08:18:31;;;;;;;22.63;12.38;;;;;;;-0.63;91.67;96882.81;5030662;28;20395;-79
2023/01/28 08:20:58;;;;;;;26.27;13.02;;;;;;;-0.53;91.59;96880.34;5034085;28;20049;-79
2023/01/28 08:23:26;;;;;;;21.38;11.32;;;;;;;-0.40;91.40;96888.13;5029467;28;20079;-80
2023/01/28 08:25:53;;;;;;;22.92;11.68;;;;;;;-0.35;91.25;96888.25;5029922;28;20076;-77
2023/01/28 08:28:20;;;;;;;23.58;12.20;;;;;;;-0.28;91.19;96890.78;5030528;28;20510;-80
2023/01/28 08:30:47;;;;;;;22.90;11.32;;;;;;;-0.22;90.84;96895.19;5034519;28;20045;-83
2023/01/28 08:33:18;;;;;;;22.08;11.18;;;;;;;-0.18;90.84;96887.50;5029923;28;20053;-79
2023/01/28 08:35:45;;;;;;;21.80;11.65;;;;;;;-0.15;90.57;96889.72;5030073;28;20053;-81
2023/01/28 08:38:14;;;;;;;23.38;11.10;;;;;;;-0.10;90.23;96885.28;5027960;28;20045;-82
2023/01/28 08:40:41;;;;;;;21.67;11.85;;;;;;;-0.05;89.59;96887.25;5031033;28;20160;-81
2023/01/28 08:43:08;;;;;;;23.73;11.32;;;;;;;0.01;89.54;96888.97;5035830;28;20056;-80
2023/01/28 08:45:34;;;;;;;21.55;11.38;;;;;;;0.03;89.45;96886.88;5037414;28;20459;-79
2023/01/28 08:48:03;;;;;;;23.63;11.82;;;;;;;0.08;89.32;96888.84;5035237;28;20049;-80
2023/01/28 08:50:32;;;;;;;22.63;12.38;;;;;;;0.12;89.19;96890.81;5028834;28;20056;-80
2023/01/28 08:53:01;;;;;;;28.50;13.63;;;;;;;0.13;88.75;96897.78;5028730;28;20107;-86
2023/01/28 08:55:27;;;;;;;28.48;14.60;;;;;;;0.15;88.91;96897.53;5028625;28;20049;-82
2023/01/28 08:57:55;;;;;;;25.02;12.73;;;;;;;0.22;88.80;96909.75;5028475;28;20060;-80
2023/01/28 09:00:22;;;;;;;22.73;11.55;;;;;;;0.17;88.81;96904.28;5030330;28;20064;-81
2023/01/28 09:02:51;;;;;;;21.83;11.70;;;;;;;0.06;88.14;96910.50;5028195;28;20045;-80
2023/01/28 09:05:18;;;;;;;25.00;12.57;;;;;;;0.16;88.10;96908.03;5027707;28;20068;-82
2023/01/28 09:07:45;;;;;;;24.10;12.20;;;;;;;0.21;87.91;96910.81;5033644;28;20052;-81
2023/01/28 09:10:12;;;;;;;23.05;11.55;;;;;;;0.23;87.54;96906.00;5035133;28;20191;-82
2023/01/28 09:12:38;;;;;;;20.45;11.25;;;;;;;0.30;87.75;96913.09;5029317;28;20049;-81
2023/01/28 09:15:08;;;;;;;21.55;11.25;;;;;;;0.32;87.30;96909.13;5028804;28;20056;-81
2023/01/28 09:17:34;;;;;;;20.38;10.95;;;;;;;0.35;87.24;96910.50;5028760;28;20451;-81
2023/01/28 09:20:01;;;;;;;22.77;11.32;;;;;;;0.30;87.18;96911.22;5029064;28;20041;-81
2023/01/28 09:22:27;;;;;;;21.35;12.07;;;;;;;0.35;87.07;96911.31;5032101;28;20505;-79
2023/01/28 09:24:53;;;;;;;27.60;14.00;;;;;;;0.28;87.25;96915.22;5028637;28;20705;-81
2023/01/28 09:27:20;;;;;;;24.95;12.38;;;;;;;0.31;87.14;96906.69;5028502;28;20668;-81
2023/01/28 09:29:46;;;;;;;22.08;11.30;;;;;;;0.47;86.72;96914.78;5028846;28;20056;-83
2023/01/28 09:32:14;;;;;;;22.95;12.63;;;;;;;0.57;86.43;96913.31;5029284;28;20057;-80
2023/01/28 09:34:43;;;;;;;25.40;12.32;;;;;;;0.56;86.46;96917.88;5029224;28;20053;-82
2023/01/28 09:37:10;;;;;;;20.90;11.13;;;;;;;0.54;86.46;96908.47;5030265;28;21030;-80
2023/01/28 09:39:36;;;;;;;19.08;11.35;;;;;;;0.42;86.13;96914.69;5030042;28;20054;-81
2023/01/28 09:42:21;;;;;;;22.83;12.13;;;;;;;0.58;85.94;96909.59;5031420;28;20068;-81
2023/01/28 09:45:01;;;;;;;22.17;11.23;;;;;;;0.51;85.55;96912.41;5029518;28;20433;-83
2023/01/28 09:47:35;;;;;;;21.40;11.10;;;;;;;0.60;85.37;96908.31;5028681;28;20041;-82
2023/01/28 09:50:07;;;;;;;23.70;12.70;;;;;;;0.51;86.11;96913.22;5028461;28;20054;-82
2023/01/28 09:52:35;;;;;;;25.45;12.30;;;;;;;0.55;85.99;96910.88;5028596;28;20049;-81
2023/01/28 09:55:04;;;;;;;21.98;11.63;;;;;;;0.56;85.35;96907.16;5028522;28;20064;-84
2023/01/28 09:57:38;;;;;;;23.80;12.40;;;;;;;0.59;85.77;96909.38;5029044;28;20060;-80
2023/01/28 10:00:12;;;;;;;24.77;11.88;;;;;;;0.64;86.54;96912.13;5028716;28;20053;-79
2023/01/28 10:02:55;;;;;;;22.55;12.93;;;;;;;0.75;86.66;96908.56;5037349;28;20053;-82
2023/01/28 10:05:30;;;;;;;24.17;12.60;;;;;;;0.78;86.28;96910.78;5032059;28;20049;-83
2023/01/28 10:08:08;;;;;;;22.55;13.25;;;;;;;0.93;85.82;96912.06;5040518;28;20049;-81
2023/01/28 10:10:43;;;;;;;22.63;12.35;;;;;;;1.16;85.45;96914.63;5035014;28;20592;-80
2023/01/28 10:13:28;;;;;;;22.13;11.90;;;;;;;1.34;84.71;96908.16;5036607;28;20101;-82
2023/01/28 10:16:09;;;;;;;22.40;11.43;;;;;;;1.37;84.10;96912.25;5037204;28;20133;-80
2023/01/28 10:18:45;;;;;;;19.38;11.00;;;;;;;1.54;83.29;96907.66;5032994;28;20710;-82
2023/01/28 10:21:17;;;;;;;20.75;11.02;;;;;;;1.73;82.55;96905.53;5032361;28;20052;-81
2023/01/28 10:23:57;;;;;;;23.38;11.50;;;;;;;1.47;82.33;96912.41;5033225;28;20060;-80
2023/01/28 10:26:26;;;;;;;21.65;11.63;;;;;;;1.69;82.82;96905.19;5039317;28;20051;-82
2023/01/28 10:28:58;;;;;;;24.13;12.65;;;;;;;1.78;82.20;96903.72;5035292;28;20053;-81
2023/01/28 10:31:32;;;;;;;21.58;11.82;;;;;;;1.91;81.60;96905.22;5033326;28;20083;-79
2023/01/28 10:34:00;;;;;;;23.70;12.25;;;;;;;1.96;82.84;96899.09;5033430;28;20041;-81
2023/01/28 10:36:27;;;;;;;21.27;10.88;;;;;;;2.01;82.00;96899.16;5032253;28;20049;-79
2023/01/28 10:38:53;;;;;;;22.83;12.63;;;;;;;2.05;80.75;96897.59;5040881;28;20053;-79
2023/01/28 10:41:22;;;;;;;26.05;13.10;;;;;;;2.20;79.96;96900.47;5034993;28;20053;-82
2023/01/28 10:43:50;;;;;;;24.58;13.13;;;;;;;2.23;80.01;96905.31;5033004;28;20045;-80
2023/01/28 10:46:20;;;;;;;21.73;11.43;;;;;;;2.21;79.03;96903.97;5031516;28;20526;-80
2023/01/28 10:48:53;;;;;;;22.90;12.18;;;;;;;2.28;79.37;96897.31;5032633;28;20957;-80
2023/01/28 10:51:30;;;;;;;20.05;11.40;;;;;;;2.18;78.15;96897.22;5035110;28;20071;-84
2023/01/28 10:53:56;;;;;;;26.17;13.48;;;;;;;2.09;78.81;96898.75;5035777;28;20049;-79
2023/01/28 10:56:26;;;;;;;23.95;11.88;;;;;;;2.17;77.64;96898.28;5033335;28;20049;-80
2023/01/28 10:58:59;;;;;;;21.63;12.52;;;;;;;2.27;78.07;96906.47;5038846;28;20053;-84
2023/01/28 11:01:37;;;;;;;22.63;12.05;;;;;;;2.35;77.35;96897.97;5032192;28;20041;-79
2023/01/28 11:04:04;;;;;;;19.80;12.10;;;;;;;2.54;77.54;96895.72;5031530;28;20068;-81
2023/01/28 11:06:32;;;;;;;21.17;11.63;;;;;;;2.54;76.48;96901.09;5032460;28;20607;-80
2023/01/28 11:08:58;;;;;;;20.45;10.95;;;;;;;2.36;75.65;96898.78;5031562;28;20529;-83
2023/01/28 11:11:26;;;;;;;22.77;12.27;;;;;;;2.47;75.79;96899.69;5037241;28;20057;-81
2023/01/28 11:13:54;;;;;;;20.15;11.80;;;;;;;2.43;75.45;96895.88;5039340;28;20069;-82
2023/01/28 11:16:22;;;;;;;20.30;11.00;;;;;;;2.28;75.38;96905.38;5030721;28;20056;-79
2023/01/28 11:18:51;;;;;;;23.50;12.52;;;;;;;2.35;76.11;96903.34;5031441;28;20052;-81
2023/01/28 11:21:21;;;;;;;23.52;11.73;;;;;;;2.40;77.12;96893.69;5035034;28;20053;-82
2023/01/28 11:23:53;;;;;;;19.65;11.23;;;;;;;2.25;75.97;96897.84;5039126;28;20517;-79
2023/01/28 11:26:22;;;;;;;20.60;10.70;;;;;;;2.40;75.24;96899.06;5031033;28;20076;-80
2023/01/28 11:28:49;;;;;;;22.30;11.13;;;;;;;2.50;74.96;96896.47;5031818;28;20514;-79
2023/01/28 11:31:17;;;;;;;20.52;10.65;;;;;;;2.57;74.61;96897.91;5033628;28;20061;-79
2023/01/28 11:33:49;;;;;;;22.63;11.88;;;;;;;2.62;75.15;96894.47;5040605;28;20075;-80
2023/01/28 11:36:17;;;;;;;18.30;10.13;;;;;;;2.34;73.40;96896.31;5032498;28;20131;-79
2023/01/28 11:38:53;;;;;;;21.63;10.63;;;;;;;2.21;75.10;96901.28;5032764;28;20049;-79
2023/01/28 11:41:27;;;;;;;21.48;11.13;;;;;;;2.08;75.56;96897.09;5036254;28;20045;-81
2023/01/28 11:43:54;;;;;;;16.13;9.10;;;;;;;1.89;71.51;96896.59;5035755;28;20049;-79
2023/01/28 11:46:38;;;;;;;17.88;9.55;;;;;;;1.93;73.52;96894.22;5033908;28;20057;-80
2023/01/28 11:49:14;;;;;;;21.45;11.20;;;;;;;1.80;73.79;96890.03;5034819;28;20049;-79
2023/01/28 11:51:48;;;;;;;20.55;10.30;;;;;;;1.77;75.35;96890.50;5042664;28;20056;-80
2023/01/28 11:54:27;;;;;;;25.60;11.77;;;;;;;1.54;77.14;96891.56;5032853;28;20170;-79
2023/01/28 11:57:11;;;;;;;18.88;10.45;;;;;;;1.75;76.16;96889.97;5031648;28;20514;-80
2023/01/28 11:59:53;;;;;;;19.10;10.45;;;;;;;1.74;76.44;96880.28;5034172;28;20049;-79
2023/01/28 12:02:35;;;;;;;20.75;10.23;;;;;;;1.62;77.38;96887.63;5040455;28;20060;-83